Decoded Metar for KSAV (SAVANNAH in GA, USA) (IATA:SAV) | Meteo·Mobile Aviation Weather
aviador You're here:

KSAV Decoded Metar

SAVANNAH in GA, USA
Report Time2018-12-13 03:53:00
UTC Time2018-12-13 04:05:06
Flight Rules vfr VFR
WindCalm
Visibility9999 m
Phenomena:N/A
Clouds:Scattered 250 Hf
Expected CloudBase > 400 ft AGL from Temp-Dew spread
CeilingNone
Temp04°C (ISA -11)
Dew Point03°C (93% RH)
AAT2.5°C
QNH1025 hPa
Density Alt-1,581 ft
Elevation46 ft
Report Wrong Elevation
Raw Report
KSAV 130353Z 00000KT 10SM SCT250 04/03 A3027 RMK AO2 SLP249
T00440028=

Extra information for KSAV:More info

Metar Taf Metar & Taf Last 4 Metars F.Rules Stats Wind Profile Meteogram Temp Stats Airport Information Weather charts Add Link Nearby VenuesMetar ALERT Operation Metar Decoded Social comments

AIRNAV info for KSAV